createdAt,value
2017-09-04T00:00:39.925Z,0
2017-09-04T00:01:40.614Z,0
2017-09-04T00:02:41.297Z,0
2017-09-04T00:03:41.954Z,0
2017-09-04T00:04:42.640Z,0
2017-09-04T00:05:43.326Z,0
2017-09-04T00:06:43.980Z,0
2017-09-04T00:07:44.636Z,0
2017-09-04T00:08:45.292Z,0
2017-09-04T00:09:45.946Z,0
2017-09-04T00:10:46.603Z,0
2017-09-04T00:11:47.257Z,0
2017-09-04T00:12:47.915Z,0
2017-09-04T00:13:48.571Z,0
2017-09-04T00:14:49.224Z,0
2017-09-04T00:15:49.880Z,0
2017-09-04T00:16:50.540Z,0
2017-09-04T00:17:51.190Z,0
2017-09-04T00:18:51.848Z,0
2017-09-04T00:19:52.504Z,0
2017-09-04T00:20:53.156Z,0
2017-09-04T00:21:53.812Z,0
2017-09-04T00:22:54.469Z,0
2017-09-04T00:23:55.120Z,0
2017-09-04T00:24:55.775Z,0
2017-09-04T00:25:56.430Z,0
2017-09-04T00:26:57.086Z,0
2017-09-04T00:27:57.741Z,0
2017-09-04T00:28:58.394Z,0
2017-09-04T00:29:59.048Z,0
2017-09-04T00:30:59.707Z,0
2017-09-04T00:32:00.364Z,0
2017-09-04T00:33:01.021Z,0
2017-09-04T00:34:01.678Z,0
2017-09-04T00:35:02.366Z,0
2017-09-04T00:36:03.052Z,0
2017-09-04T00:37:03.708Z,0
2017-09-04T00:38:04.366Z,0
2017-09-04T00:39:05.021Z,0
2017-09-04T00:40:05.707Z,0
2017-09-04T00:41:06.368Z,0
2017-09-04T00:42:07.021Z,0
2017-09-04T00:43:07.681Z,0
2017-09-04T00:44:08.368Z,0
2017-09-04T00:45:09.023Z,0
2017-09-04T00:46:09.679Z,0
2017-09-04T00:47:10.337Z,0
2017-09-04T00:48:10.991Z,0
2017-09-04T00:49:11.648Z,0
2017-09-04T00:50:12.300Z,0
2017-09-04T00:51:12.958Z,0
2017-09-04T00:52:13.614Z,0
2017-09-04T00:53:14.274Z,0
2017-09-04T00:54:14.979Z,0
2017-09-04T00:55:15.607Z,0
2017-09-04T00:56:16.269Z,0
2017-09-04T00:57:16.927Z,0
2017-09-04T00:58:17.580Z,0
2017-09-04T00:59:18.270Z,0
2017-09-04T01:00:18.923Z,0
2017-09-04T01:01:19.577Z,0
2017-09-04T01:02:20.232Z,0
2017-09-04T01:03:20.886Z,0
2017-09-04T01:04:21.566Z,0
2017-09-04T01:05:22.195Z,0
2017-09-04T01:06:22.847Z,0
2017-09-04T01:07:23.516Z,0
2017-09-04T01:08:24.163Z,0
2017-09-04T01:09:24.851Z,0
2017-09-04T01:10:25.505Z,0
2017-09-04T01:11:26.159Z,0
2017-09-04T01:12:26.817Z,0
2017-09-04T01:13:27.474Z,0
2017-09-04T01:14:28.128Z,0
2017-09-04T01:15:28.786Z,0
2017-09-04T01:16:29.442Z,0
2017-09-04T01:17:30.127Z,0
2017-09-04T01:18:30.784Z,0
2017-09-04T01:19:31.437Z,0
2017-09-04T01:20:32.090Z,0
2017-09-04T01:21:32.752Z,0
2017-09-04T01:22:33.431Z,0
2017-09-04T01:23:34.090Z,0
2017-09-04T01:24:34.746Z,0
2017-09-04T01:25:35.433Z,0
2017-09-04T01:26:36.092Z,0
2017-09-04T01:27:36.747Z,0
2017-09-04T01:28:37.434Z,0
2017-09-04T01:29:38.125Z,0
2017-09-04T01:30:38.783Z,0
2017-09-04T01:31:39.469Z,0
2017-09-04T01:32:40.119Z,0
2017-09-04T01:33:40.779Z,0
2017-09-04T01:34:41.437Z,0
2017-09-04T01:35:42.093Z,0
2017-09-04T01:36:42.748Z,0
2017-09-04T01:37:43.440Z,0
2017-09-04T01:38:44.097Z,0
2017-09-04T01:39:44.747Z,0
2017-09-04T01:40:45.407Z,0
2017-09-04T01:41:46.059Z,0
2017-09-04T01:42:46.714Z,0
2017-09-04T01:43:47.368Z,0
2017-09-04T01:44:48.022Z,0
2017-09-04T01:45:48.708Z,0
2017-09-04T01:46:49.365Z,0
2017-09-04T01:47:50.019Z,0
2017-09-04T01:48:50.675Z,0
2017-09-04T01:49:51.332Z,0
2017-09-04T01:50:51.987Z,0
2017-09-04T01:51:52.641Z,0
2017-09-04T01:52:53.295Z,0
2017-09-04T01:53:53.949Z,0
2017-09-04T01:54:54.602Z,0
2017-09-04T01:55:55.254Z,0
2017-09-04T01:56:55.911Z,0
2017-09-04T01:57:56.570Z,0
2017-09-04T01:58:57.221Z,0
2017-09-04T01:59:57.876Z,0
2017-09-04T02:00:58.537Z,0
2017-09-04T02:01:59.188Z,0
2017-09-04T02:02:59.845Z,0
2017-09-04T02:04:00.504Z,0
2017-09-04T02:05:01.156Z,0
2017-09-04T02:06:01.812Z,0
2017-09-04T02:07:02.472Z,0
2017-09-04T02:08:03.125Z,0
2017-09-04T02:09:03.780Z,0
2017-09-04T02:10:04.438Z,0
2017-09-04T02:11:05.089Z,0
2017-09-04T02:12:05.753Z,0
2017-09-04T02:13:06.430Z,0
2017-09-04T02:14:07.114Z,0
2017-09-04T02:15:07.765Z,0
2017-09-04T02:16:08.422Z,0
2017-09-04T02:17:09.075Z,0
2017-09-04T02:18:09.731Z,0
2017-09-04T02:19:10.390Z,0
2017-09-04T02:20:11.075Z,0
2017-09-04T02:21:11.732Z,0
2017-09-04T02:22:12.386Z,0
2017-09-04T02:23:13.043Z,0
2017-09-04T02:24:13.724Z,0
2017-09-04T02:25:14.378Z,0
2017-09-04T02:26:15.037Z,0
2017-09-04T02:27:15.690Z,0
2017-09-04T02:28:16.350Z,0
2017-09-04T02:29:17.006Z,0
2017-09-04T02:30:17.690Z,0
2017-09-04T02:31:18.378Z,0
2017-09-04T02:32:19.030Z,0
2017-09-04T02:33:19.686Z,0
2017-09-04T02:34:20.341Z,0
2017-09-04T02:35:20.995Z,0
2017-09-04T02:36:21.645Z,0
2017-09-04T02:37:22.307Z,0
2017-09-04T02:38:22.960Z,0
2017-09-04T02:39:23.614Z,0
2017-09-04T02:40:24.268Z,0
2017-09-04T02:41:24.921Z,0
2017-09-04T02:42:25.573Z,0
2017-09-04T02:43:26.228Z,0
2017-09-04T02:44:26.885Z,0
2017-09-04T02:45:27.539Z,0
2017-09-04T02:46:28.196Z,0
2017-09-04T02:47:28.852Z,0
2017-09-04T02:48:29.508Z,0
2017-09-04T02:49:30.163Z,0
2017-09-04T02:50:30.815Z,0
2017-09-04T02:51:31.521Z,0
2017-09-04T02:52:32.211Z,0
2017-09-04T02:53:32.898Z,0
2017-09-04T02:54:33.549Z,0
2017-09-04T02:55:34.205Z,0
2017-09-04T02:56:34.859Z,0
2017-09-04T02:57:35.515Z,0
2017-09-04T02:58:36.169Z,0
2017-09-04T02:59:36.826Z,0
2017-09-04T03:00:37.480Z,0
2017-09-04T03:01:38.140Z,0
2017-09-04T03:02:38.789Z,0
2017-09-04T03:03:39.445Z,0
2017-09-04T03:04:40.096Z,0
2017-09-04T03:05:40.747Z,0
2017-09-04T03:06:41.409Z,0
2017-09-04T03:07:42.068Z,0
2017-09-04T03:08:42.751Z,0
2017-09-04T03:09:43.413Z,0
2017-09-04T03:10:44.066Z,0
2017-09-04T03:11:44.720Z,0
2017-09-04T03:12:45.377Z,0
2017-09-04T03:13:46.029Z,0
2017-09-04T03:14:59.428Z,0
2017-09-04T03:16:00.112Z,0
2017-09-04T03:17:00.768Z,0
2017-09-04T03:18:01.419Z,0
2017-09-04T03:19:02.077Z,0
2017-09-04T03:20:02.727Z,0
2017-09-04T03:21:03.382Z,0
2017-09-04T03:22:04.035Z,0
2017-09-04T03:23:04.687Z,0
2017-09-04T03:24:05.343Z,0
2017-09-04T03:25:06.002Z,0
2017-09-04T03:26:06.657Z,0
2017-09-04T03:27:07.312Z,0
2017-09-04T03:28:07.969Z,0
2017-09-04T03:29:08.618Z,0
2017-09-04T03:30:09.276Z,0
2017-09-04T03:31:09.926Z,0
2017-09-04T03:32:10.583Z,0
2017-09-04T03:33:11.237Z,0
2017-09-04T03:34:11.916Z,0
2017-09-04T03:35:12.547Z,0
2017-09-04T03:36:13.201Z,0
2017-09-04T03:37:13.858Z,0
2017-09-04T03:38:14.539Z,0
2017-09-04T03:39:15.196Z,0
2017-09-04T03:40:15.848Z,0
2017-09-04T03:41:16.503Z,0
2017-09-04T03:42:17.189Z,0
2017-09-04T03:43:17.869Z,0
2017-09-04T03:44:18.526Z,0
2017-09-04T03:45:19.180Z,4
2017-09-04T03:46:19.835Z,4
2017-09-04T03:47:20.526Z,4
2017-09-04T03:48:21.179Z,4
2017-09-04T03:49:21.833Z,4
2017-09-04T03:50:22.490Z,4
2017-09-04T03:51:23.144Z,8
2017-09-04T03:52:23.799Z,4
2017-09-04T03:53:24.449Z,8
2017-09-04T03:54:25.107Z,12
2017-09-04T03:55:25.760Z,8
2017-09-04T03:56:26.418Z,12
2017-09-04T03:57:27.073Z,12
2017-09-04T03:58:27.730Z,16
2017-09-04T03:59:28.416Z,16
2017-09-04T04:00:29.069Z,16
2017-09-04T04:01:29.727Z,24
2017-09-04T04:02:30.381Z,24
2017-09-04T04:03:31.038Z,28
2017-09-04T04:04:31.690Z,32
2017-09-04T04:05:32.341Z,36
2017-09-04T04:06:33.000Z,40
2017-09-04T04:07:33.659Z,44
2017-09-04T04:08:34.314Z,48
2017-09-04T04:09:34.971Z,52
2017-09-04T04:10:35.625Z,64
2017-09-04T04:11:36.282Z,68
2017-09-04T04:12:36.941Z,76
2017-09-04T04:13:37.596Z,84
2017-09-04T04:14:38.249Z,92
2017-09-04T04:15:38.934Z,100
2017-09-04T04:16:39.591Z,112
2017-09-04T04:17:40.248Z,124
2017-09-04T04:18:40.932Z,136
2017-09-04T04:19:41.619Z,148
2017-09-04T04:20:42.281Z,160
2017-09-04T04:21:42.933Z,180
2017-09-04T04:22:43.597Z,200
2017-09-04T04:23:44.248Z,220
2017-09-04T04:24:44.936Z,248
2017-09-04T04:25:45.595Z,268
2017-09-04T04:26:46.248Z,296
2017-09-04T04:27:46.904Z,320
2017-09-04T04:28:47.566Z,372
2017-09-04T04:29:48.225Z,376
2017-09-04T04:30:48.881Z,412
2017-09-04T04:31:49.536Z,440
2017-09-04T04:32:50.193Z,476
2017-09-04T04:33:50.852Z,512
2017-09-04T04:34:51.507Z,540
2017-09-04T04:35:52.194Z,584
2017-09-04T04:36:52.854Z,624
2017-09-04T04:37:53.511Z,660
2017-09-04T04:38:54.167Z,692
2017-09-04T04:39:54.827Z,772
2017-09-04T04:40:55.489Z,816
2017-09-04T04:41:56.140Z,864
2017-09-04T04:42:56.803Z,1000
2017-09-04T04:43:57.462Z,1052
2017-09-04T04:44:58.122Z,972
2017-09-04T04:45:58.777Z,1032
2017-09-04T04:46:59.441Z,1132
2017-09-04T04:48:00.099Z,1240
2017-09-04T04:49:00.752Z,1344
2017-09-04T04:50:01.416Z,1396
2017-09-04T04:51:02.074Z,1480
2017-09-04T04:52:02.759Z,1460
2017-09-04T04:53:03.423Z,1476
2017-09-04T04:54:04.074Z,1672
2017-09-04T04:55:04.733Z,1664
2017-09-04T04:56:05.394Z,1572
2017-09-04T04:57:06.076Z,1652
2017-09-04T04:58:06.719Z,1988
2017-09-04T04:59:07.406Z,2084
2017-09-04T05:00:08.064Z,2196
2017-09-04T05:01:08.723Z,2256
2017-09-04T05:02:09.382Z,2564
2017-09-04T05:03:10.042Z,2800
2017-09-04T05:04:10.703Z,2452
2017-09-04T05:05:11.364Z,2412
2017-09-04T05:06:12.027Z,2552
2017-09-04T05:07:12.687Z,2608
2017-09-04T05:08:13.376Z,2500
2017-09-04T05:09:14.037Z,2664
2017-09-04T05:10:14.699Z,3156
2017-09-04T05:11:15.360Z,3732
2017-09-04T05:12:16.022Z,3652
2017-09-04T05:13:16.680Z,3092
2017-09-04T05:14:17.343Z,3564
2017-09-04T05:15:17.999Z,2916
2017-09-04T05:16:18.661Z,2660
2017-09-04T05:17:19.322Z,2496
2017-09-04T05:18:19.984Z,2596
2017-09-04T05:19:20.643Z,2924
2017-09-04T05:20:21.305Z,3312
2017-09-04T05:21:21.965Z,3488
2017-09-04T05:22:22.626Z,3096
2017-09-04T05:23:23.284Z,2940
2017-09-04T05:24:23.945Z,3052
2017-09-04T05:25:24.605Z,2964
2017-09-04T05:26:25.265Z,2688
2017-09-04T05:27:25.926Z,3928
2017-09-04T05:28:26.587Z,5376
2017-09-04T05:29:27.251Z,5268
2017-09-04T05:30:27.943Z,4956
2017-09-04T05:31:28.595Z,5696
2017-09-04T05:32:29.253Z,5532
2017-09-04T05:33:29.918Z,6400
2017-09-04T05:34:30.578Z,5008
2017-09-04T05:35:31.235Z,3820
2017-09-04T05:36:31.900Z,3712
2017-09-04T05:37:32.557Z,3948
2017-09-04T05:38:33.219Z,4072
2017-09-04T05:39:33.911Z,4360
2017-09-04T05:40:34.572Z,5228
2017-09-04T05:41:35.227Z,5592
2017-09-04T05:42:35.891Z,5852
2017-09-04T05:43:36.554Z,6232
2017-09-04T05:44:37.214Z,4860
2017-09-04T05:45:37.871Z,4356
2017-09-04T05:46:38.531Z,5772
2017-09-04T05:47:39.195Z,5720
2017-09-04T05:48:39.855Z,5488
2017-09-04T05:49:40.517Z,5996
2017-09-04T05:50:41.176Z,5940
2017-09-04T05:51:41.841Z,6872
2017-09-04T05:52:42.493Z,6364
2017-09-04T05:53:43.155Z,7180
2017-09-04T05:54:43.820Z,4300
2017-09-04T05:55:44.483Z,5120
2017-09-04T05:56:45.141Z,3916
2017-09-04T05:57:45.805Z,4576
2017-09-04T05:58:46.467Z,3992
2017-09-04T05:59:47.128Z,4060
2017-09-04T06:00:47.789Z,5052
2017-09-04T06:01:48.453Z,5776
2017-09-04T06:02:49.144Z,5760
2017-09-04T06:03:49.806Z,4612
2017-09-04T06:04:50.468Z,4416
2017-09-04T06:05:51.126Z,4360
2017-09-04T06:06:51.791Z,5464
2017-09-04T06:07:52.450Z,6064
2017-09-04T06:08:53.114Z,7924
2017-09-04T06:09:53.776Z,6120
2017-09-04T06:10:54.436Z,6496
2017-09-04T06:11:55.097Z,6800
2017-09-04T06:12:55.754Z,6440
2017-09-04T06:13:56.417Z,6164
2017-09-04T06:14:57.081Z,7976
2017-09-04T06:15:57.751Z,8404
2017-09-04T06:16:58.432Z,7760
2017-09-04T06:17:59.097Z,8972
2017-09-04T06:18:59.752Z,9052
2017-09-04T06:20:00.421Z,12392
2017-09-04T06:21:01.086Z,13928
2017-09-04T06:22:01.750Z,7516
2017-09-04T06:23:02.440Z,10328
2017-09-04T06:24:03.134Z,14516
2017-09-04T06:25:03.794Z,10356
2017-09-04T06:26:04.456Z,8716
2017-09-04T06:27:05.114Z,10136
2017-09-04T06:28:05.778Z,12772
2017-09-04T06:29:06.442Z,9548
2017-09-04T06:30:07.104Z,8440
2017-09-04T06:31:07.795Z,6920
2017-09-04T06:32:08.459Z,8712
2017-09-04T06:33:09.117Z,10952
2017-09-04T06:34:09.776Z,7884
2017-09-04T06:35:10.440Z,6096
2017-09-04T06:36:11.109Z,6184
2017-09-04T06:37:11.803Z,8236
2017-09-04T06:38:12.467Z,8104
2017-09-04T06:39:13.130Z,8324
2017-09-04T06:40:13.793Z,8036
2017-09-04T06:41:14.452Z,8464
2017-09-04T06:42:15.117Z,9980
2017-09-04T06:43:15.777Z,8228
2017-09-04T06:44:16.440Z,11620
2017-09-04T06:45:17.105Z,10024
2017-09-04T06:46:17.795Z,9148
2017-09-04T06:47:18.459Z,8872
2017-09-04T06:48:19.122Z,10448
2017-09-04T06:49:19.784Z,13536
2017-09-04T06:50:20.452Z,9236
2017-09-04T06:51:21.111Z,11040
2017-09-04T06:52:21.774Z,16920
2017-09-04T06:53:22.438Z,10452
2017-09-04T06:54:23.101Z,10520
2017-09-04T06:55:23.766Z,11916
2017-09-04T06:56:24.433Z,12540
2017-09-04T06:57:25.094Z,9640
2017-09-04T06:58:25.747Z,10440
2017-09-04T06:59:26.417Z,11496
2017-09-04T07:00:27.081Z,11884
2017-09-04T07:01:27.752Z,12380
2017-09-04T07:02:28.439Z,11288
2017-09-04T07:03:29.105Z,12040
2017-09-04T07:04:29.764Z,11212
2017-09-04T07:05:30.431Z,11708
2017-09-04T07:06:31.119Z,11548
2017-09-04T07:07:31.785Z,14788
2017-09-04T07:08:32.449Z,14476
2017-09-04T07:09:33.115Z,14156
2017-09-04T07:10:33.814Z,14392
2017-09-04T07:11:34.473Z,12120
2017-09-04T07:12:35.134Z,13864
2017-09-04T07:13:35.830Z,13312
2017-09-04T07:14:36.495Z,13104
2017-09-04T07:15:37.161Z,12872
2017-09-04T07:16:37.822Z,12716
2017-09-04T07:17:38.485Z,12980
2017-09-04T07:18:39.150Z,10204
2017-09-04T07:19:39.840Z,11248
2017-09-04T07:20:40.505Z,12244
2017-09-04T07:21:41.167Z,14164
2017-09-04T07:22:41.834Z,16232
2017-09-04T07:23:42.496Z,16972
2017-09-04T07:24:43.156Z,17792
2017-09-04T07:25:43.820Z,17632
2017-09-04T07:26:44.487Z,18816
2017-09-04T07:27:45.150Z,19200
2017-09-04T07:28:45.816Z,20000
2017-09-04T07:29:46.510Z,20480
2017-09-04T07:30:47.205Z,20800
2017-09-04T07:31:47.871Z,21408
2017-09-04T07:32:48.566Z,20800
2017-09-04T07:33:49.229Z,20704
2017-09-04T07:34:49.894Z,20640
2017-09-04T07:35:50.558Z,20960
2017-09-04T07:36:51.224Z,20992
2017-09-04T07:37:51.889Z,21120
2017-09-04T07:38:52.551Z,21568
2017-09-04T07:39:53.212Z,21600
2017-09-04T07:40:53.880Z,21920
2017-09-04T07:41:54.545Z,22624
2017-09-04T07:42:55.215Z,22144
2017-09-04T07:43:55.877Z,20224
2017-09-04T07:44:56.583Z,22816
2017-09-04T07:45:57.248Z,23040
2017-09-04T07:46:57.941Z,22944
2017-09-04T07:47:58.608Z,22880
2017-09-04T07:48:59.274Z,22688
2017-09-04T07:49:59.935Z,22592
2017-09-04T07:51:00.607Z,22272
2017-09-04T07:52:01.309Z,22112
2017-09-04T07:53:02.002Z,21920
2017-09-04T07:54:02.671Z,21920
2017-09-04T07:55:03.339Z,22016
2017-09-04T07:56:04.006Z,22240
2017-09-04T07:57:04.674Z,22336
2017-09-04T07:58:05.338Z,21024
2017-09-04T07:59:06.006Z,22144
2017-09-04T08:00:06.673Z,22528
2017-09-04T08:01:07.342Z,22944
2017-09-04T08:02:08.007Z,23616
2017-09-04T08:03:08.676Z,24480
2017-09-04T08:04:09.341Z,24448
2017-09-04T08:05:10.009Z,25472
2017-09-04T08:06:10.704Z,25696
2017-09-04T08:07:11.380Z,27232
2017-09-04T08:08:12.036Z,24352
2017-09-04T08:09:12.707Z,24544
2017-09-04T08:10:13.371Z,24320
2017-09-04T08:11:14.037Z,25696
2017-09-04T08:12:14.703Z,26720
2017-09-04T08:13:15.373Z,27296
2017-09-04T08:14:16.036Z,27008
2017-09-04T08:15:16.727Z,26432
2017-09-04T08:16:17.395Z,24320
2017-09-04T08:17:18.060Z,24992
2017-09-04T08:18:18.729Z,26432
2017-09-04T08:19:19.396Z,25664
2017-09-04T08:20:20.063Z,24032
2017-09-04T08:21:20.755Z,24768
2017-09-04T08:22:21.425Z,23552
2017-09-04T08:23:22.094Z,22432
2017-09-04T08:24:22.750Z,20832
2017-09-04T08:25:23.422Z,21952
2017-09-04T08:26:24.089Z,21504
2017-09-04T08:27:24.749Z,21696
2017-09-04T08:28:25.423Z,21184
2017-09-04T08:29:26.090Z,21024
2017-09-04T08:30:26.788Z,20160
2017-09-04T08:31:27.458Z,18720
2017-09-04T08:32:28.152Z,20416
2017-09-04T08:33:28.820Z,20800
2017-09-04T08:34:29.486Z,20352
2017-09-04T08:35:30.154Z,20800
2017-09-04T08:36:30.821Z,20704
2017-09-04T08:37:31.488Z,20704
2017-09-04T08:38:32.149Z,22688
2017-09-04T08:39:32.818Z,23040
2017-09-04T08:40:33.503Z,23264
2017-09-04T08:41:34.160Z,22848
2017-09-04T08:42:34.824Z,22432
2017-09-04T08:43:35.492Z,19456
2017-09-04T08:44:36.160Z,17920
2017-09-04T08:45:36.828Z,12388
2017-09-04T08:46:37.521Z,13840
2017-09-04T08:47:38.189Z,10832
2017-09-04T08:48:38.849Z,8900
2017-09-04T08:49:39.520Z,12236
2017-09-04T08:50:40.183Z,12748
2017-09-04T08:51:40.857Z,13176
2017-09-04T08:52:41.515Z,10492
2017-09-04T08:53:42.182Z,11028
2017-09-04T08:54:42.845Z,10280
2017-09-04T08:55:43.507Z,9012
2017-09-04T08:56:44.174Z,13944
2017-09-04T08:57:44.845Z,14620
2017-09-04T08:58:45.536Z,12808
2017-09-04T08:59:46.202Z,11648
2017-09-04T09:00:46.875Z,10424
2017-09-04T09:01:47.532Z,12864
2017-09-04T09:02:48.196Z,16412
2017-09-04T09:03:48.865Z,17752
2017-09-04T09:04:49.525Z,16660
2017-09-04T09:05:50.189Z,15620
2017-09-04T09:06:50.849Z,18592
2017-09-04T09:07:51.515Z,20192
2017-09-04T09:08:52.178Z,18112
2017-09-04T09:09:52.842Z,19008
2017-09-04T09:10:53.506Z,17144
2017-09-04T09:11:54.173Z,10344
2017-09-04T09:12:54.838Z,11280
2017-09-04T09:13:55.530Z,13060
2017-09-04T09:14:56.203Z,14608
2017-09-04T09:15:56.895Z,14376
2017-09-04T09:16:57.551Z,11900
2017-09-04T09:17:58.216Z,11652
2017-09-04T09:18:58.880Z,12944
2017-09-04T09:19:59.547Z,10080
2017-09-04T09:21:00.211Z,12828
2017-09-04T09:22:00.879Z,9560
2017-09-04T09:23:01.539Z,5728
2017-09-04T09:24:02.230Z,8232
2017-09-04T09:25:02.895Z,10616
2017-09-04T09:26:03.560Z,15500
2017-09-04T09:27:04.222Z,16040
2017-09-04T09:28:04.886Z,9372
2017-09-04T09:29:05.551Z,9072
2017-09-04T09:30:06.211Z,9180
2017-09-04T09:31:06.871Z,13188
2017-09-04T09:32:07.541Z,15980
2017-09-04T09:33:08.203Z,18304
2017-09-04T09:34:08.868Z,20000
2017-09-04T09:35:09.532Z,16860
2017-09-04T09:36:10.199Z,12284
2017-09-04T09:37:10.864Z,13520
2017-09-04T09:38:11.861Z,11404
2017-09-04T09:39:12.523Z,12436
2017-09-04T09:40:13.189Z,15096
2017-09-04T09:41:13.853Z,16952
2017-09-04T09:42:14.550Z,16484
2017-09-04T09:43:15.212Z,17436
2017-09-04T09:44:15.877Z,20800
2017-09-04T09:45:16.544Z,23584
2017-09-04T09:46:17.210Z,25760
2017-09-04T09:47:17.872Z,27936
2017-09-04T09:48:18.534Z,27616
2017-09-04T09:49:19.202Z,28192
2017-09-04T09:50:19.869Z,25184
2017-09-04T09:51:20.567Z,25440
2017-09-04T09:52:21.230Z,24064
2017-09-04T09:53:21.928Z,25984
2017-09-04T09:54:22.624Z,28576
2017-09-04T09:55:23.293Z,28224
2017-09-04T09:56:23.958Z,24704
2017-09-04T09:57:24.624Z,23552
2017-09-04T09:58:25.319Z,23712
2017-09-04T09:59:25.988Z,23072
2017-09-04T10:00:26.652Z,21504
2017-09-04T10:01:27.320Z,19904
2017-09-04T10:02:28.017Z,18496
2017-09-04T10:03:28.683Z,19264
2017-09-04T10:04:29.347Z,21600
2017-09-04T10:05:30.011Z,23136
2017-09-04T10:06:30.678Z,24864
2017-09-04T10:07:31.347Z,26880
2017-09-04T10:08:32.016Z,28416
2017-09-04T10:09:32.681Z,28736
2017-09-04T10:10:33.348Z,29152
2017-09-04T10:11:34.015Z,31264
2017-09-04T10:12:34.683Z,33216
2017-09-04T10:13:35.355Z,37952
2017-09-04T10:14:36.021Z,36608
2017-09-04T10:15:36.688Z,38048
2017-09-04T10:16:37.359Z,33856
2017-09-04T10:17:38.023Z,30560
2017-09-04T10:18:38.690Z,34016
2017-09-04T10:19:39.362Z,40224
2017-09-04T10:20:40.028Z,27936
2017-09-04T10:21:40.693Z,30784
2017-09-04T10:22:41.365Z,38560
2017-09-04T10:23:42.027Z,38112
2017-09-04T10:24:42.699Z,37216
2017-09-04T10:25:43.365Z,32640
2017-09-04T10:26:44.038Z,31616
2017-09-04T10:27:44.705Z,30976
2017-09-04T10:28:45.376Z,28608
2017-09-04T10:29:46.076Z,28448
2017-09-04T10:30:46.749Z,26240
2017-09-04T10:31:47.445Z,25760
2017-09-04T10:32:48.115Z,27648
2017-09-04T10:33:48.811Z,26848
2017-09-04T10:34:49.482Z,26272
2017-09-04T10:35:50.150Z,27296
2017-09-04T10:36:50.822Z,26656
2017-09-04T10:37:51.491Z,27616
2017-09-04T10:38:52.191Z,28736
2017-09-04T10:39:52.858Z,27776
2017-09-04T10:40:53.531Z,27968
2017-09-04T10:41:54.193Z,29376
2017-09-04T10:42:54.860Z,27328
2017-09-04T10:43:55.532Z,27200
2017-09-04T10:44:56.198Z,27232
2017-09-04T10:45:56.867Z,26656
2017-09-04T10:46:57.534Z,23360
2017-09-04T10:47:58.233Z,20224
2017-09-04T10:48:58.898Z,20832
2017-09-04T10:49:59.567Z,24704
2017-09-04T10:51:00.232Z,24768
2017-09-04T10:52:00.902Z,25728
2017-09-04T10:53:01.569Z,24512
2017-09-04T10:54:02.235Z,23712
2017-09-04T10:55:02.906Z,23168
2017-09-04T10:56:03.574Z,23776
2017-09-04T10:57:04.240Z,19392
2017-09-04T10:58:04.909Z,15504
2017-09-04T10:59:05.577Z,16196
2017-09-04T11:00:06.243Z,16216
2017-09-04T11:01:06.908Z,14076
2017-09-04T11:02:07.574Z,14744
2017-09-04T11:03:08.237Z,15748
2017-09-04T11:04:08.905Z,17468
2017-09-04T11:05:09.570Z,19680
2017-09-04T11:06:10.235Z,16232
2017-09-04T11:07:10.902Z,11364
2017-09-04T11:08:11.564Z,9752
2017-09-04T11:09:12.232Z,8276
2017-09-04T11:10:12.896Z,7136
2017-09-04T11:11:13.561Z,6548
2017-09-04T11:12:14.226Z,6276
2017-09-04T11:13:14.888Z,7448
2017-09-04T11:14:15.554Z,8464
2017-09-04T11:15:16.222Z,7724
2017-09-04T11:16:16.919Z,10188
2017-09-04T11:17:17.581Z,12340
2017-09-04T11:18:18.255Z,10808
2017-09-04T11:19:18.939Z,12564
2017-09-04T11:20:19.602Z,18240
2017-09-04T11:21:20.265Z,19456
2017-09-04T11:22:20.928Z,18752
2017-09-04T11:23:21.592Z,19008
2017-09-04T11:24:22.258Z,18464
2017-09-04T11:25:22.922Z,18784
2017-09-04T11:26:23.589Z,18400
2017-09-04T11:27:24.249Z,16844
2017-09-04T11:28:24.919Z,16080
2017-09-04T11:29:25.584Z,20832
2017-09-04T11:30:26.247Z,25472
2017-09-04T11:31:26.943Z,24608
2017-09-04T11:32:27.609Z,23616
2017-09-04T11:33:28.272Z,22496
2017-09-04T11:34:28.938Z,19488
2017-09-04T11:35:29.600Z,18336
2017-09-04T11:36:30.263Z,18688
2017-09-04T11:37:30.931Z,17888
2017-09-04T11:38:31.595Z,17492
2017-09-04T11:39:32.258Z,18272
2017-09-04T11:40:32.921Z,19168
2017-09-04T11:41:33.620Z,20416
2017-09-04T11:42:34.286Z,25984
2017-09-04T11:43:34.952Z,28992
2017-09-04T11:44:35.619Z,26496
2017-09-04T11:45:36.286Z,19616
2017-09-04T11:46:36.948Z,21472
2017-09-04T11:47:37.617Z,21952
2017-09-04T11:48:38.281Z,25632
2017-09-04T11:49:38.950Z,21408
2017-09-04T11:50:39.617Z,20288
2017-09-04T11:51:40.282Z,20544
2017-09-04T11:52:40.949Z,22688
2017-09-04T11:53:41.612Z,25088
2017-09-04T11:54:42.284Z,25952
2017-09-04T11:55:42.943Z,19328
2017-09-04T11:56:43.612Z,11716
2017-09-04T11:57:44.273Z,9908
2017-09-04T11:58:44.940Z,13028
2017-09-04T11:59:45.607Z,18368
2017-09-04T12:00:46.302Z,22880
2017-09-04T12:01:46.968Z,20224
2017-09-04T12:02:47.631Z,17760
2017-09-04T12:03:48.301Z,21152
2017-09-04T12:04:48.964Z,15960
2017-09-04T12:05:49.632Z,11684
2017-09-04T12:06:50.297Z,9732
2017-09-04T12:07:50.957Z,8604
2017-09-04T12:08:51.624Z,9232
2017-09-04T12:09:52.285Z,9168
2017-09-04T12:10:52.947Z,9536
2017-09-04T12:11:53.612Z,10920
2017-09-04T12:12:54.277Z,14740
2017-09-04T12:13:54.943Z,14460
2017-09-04T12:14:55.604Z,8472
2017-09-04T12:15:56.270Z,6452
2017-09-04T12:16:56.931Z,5060
2017-09-04T12:17:57.595Z,5004
2017-09-04T12:18:58.256Z,5120
2017-09-04T12:19:58.959Z,5012
2017-09-04T12:20:59.622Z,4744
2017-09-04T12:22:00.288Z,4972
2017-09-04T12:23:00.979Z,4368
2017-09-04T12:24:01.646Z,5692
2017-09-04T12:25:02.308Z,7520
2017-09-04T12:26:02.976Z,7248
2017-09-04T12:27:03.638Z,7620
2017-09-04T12:28:04.296Z,7612
2017-09-04T12:29:04.957Z,8732
2017-09-04T12:30:05.621Z,10656
2017-09-04T12:31:06.284Z,9060
2017-09-04T12:32:06.946Z,9504
2017-09-04T12:33:07.611Z,9828
2017-09-04T12:34:08.271Z,10684
2017-09-04T12:35:08.937Z,12396
2017-09-04T12:36:09.596Z,14472
2017-09-04T12:37:10.261Z,15192
2017-09-04T12:38:10.927Z,13864
2017-09-04T12:39:11.585Z,11896
2017-09-04T12:40:12.248Z,10508
2017-09-04T12:41:12.940Z,9708
2017-09-04T12:42:13.601Z,8864
2017-09-04T12:43:14.266Z,8604
2017-09-04T12:44:14.927Z,8876
2017-09-04T12:45:15.586Z,6972
2017-09-04T12:46:16.253Z,7116
2017-09-04T12:47:16.940Z,7496
2017-09-04T12:48:17.595Z,6732
2017-09-04T12:49:18.254Z,5992
2017-09-04T12:50:18.920Z,5812
2017-09-04T12:51:19.581Z,5700
2017-09-04T12:52:20.247Z,5556
2017-09-04T12:53:20.900Z,5744
2017-09-04T12:54:21.562Z,5288
2017-09-04T12:55:22.222Z,6036
2017-09-04T12:56:22.882Z,6420
2017-09-04T12:57:23.543Z,7100
2017-09-04T12:58:24.204Z,8364
2017-09-04T12:59:24.864Z,9276
2017-09-04T13:00:25.551Z,9604
2017-09-04T13:01:26.183Z,9460
2017-09-04T13:02:26.874Z,9012
2017-09-04T13:03:27.533Z,9308
2017-09-04T13:04:28.190Z,10144
2017-09-04T13:05:28.852Z,10884
2017-09-04T13:06:29.511Z,9736
2017-09-04T13:07:30.174Z,8624
2017-09-04T13:08:30.833Z,8836
2017-09-04T13:09:31.491Z,7960
2017-09-04T13:10:32.150Z,7088
2017-09-04T13:11:32.812Z,6884
2017-09-04T13:12:33.474Z,6824
2017-09-04T13:13:34.133Z,5864
2017-09-04T13:14:34.794Z,6780
2017-09-04T13:15:35.450Z,9264
2017-09-04T13:16:36.111Z,6372
2017-09-04T13:17:36.773Z,7120
2017-09-04T13:18:37.431Z,8188
2017-09-04T13:19:38.093Z,8060
2017-09-04T13:20:38.749Z,8108
2017-09-04T13:21:39.413Z,7996
2017-09-04T13:22:40.073Z,8364
2017-09-04T13:23:40.732Z,7748
2017-09-04T13:24:41.393Z,6032
2017-09-04T13:25:42.057Z,5928
2017-09-04T13:26:42.720Z,8272
2017-09-04T13:27:43.379Z,8096
2017-09-04T13:28:44.040Z,4780
2017-09-04T13:29:44.703Z,3896
2017-09-04T13:30:45.367Z,3400
2017-09-04T13:31:46.021Z,4744
2017-09-04T13:32:46.686Z,7148
2017-09-04T13:33:47.344Z,9112
2017-09-04T13:34:48.005Z,8088
2017-09-04T13:35:48.666Z,8072
2017-09-04T13:36:49.330Z,7080
2017-09-04T13:37:49.988Z,7108
2017-09-04T13:38:50.648Z,8488
2017-09-04T13:39:51.310Z,9492
2017-09-04T13:40:51.972Z,9100
2017-09-04T13:41:52.630Z,9104
2017-09-04T13:42:53.292Z,9572